createdAt,value
2018-05-21T00:00:47.834Z,59.36
2018-05-21T00:03:15.577Z,59.50
2018-05-21T00:05:43.100Z,61.50
2018-05-21T00:08:10.618Z,59.42
2018-05-21T00:10:38.363Z,58.35
2018-05-21T00:13:06.977Z,59.46
2018-05-21T00:15:34.486Z,58.92
2018-05-21T00:18:01.986Z,58.91
2018-05-21T00:20:29.579Z,61.11
2018-05-21T00:22:57.169Z,60.77
2018-05-21T00:25:24.667Z,64.68
2018-05-21T00:27:52.219Z,60.49
2018-05-21T00:30:19.767Z,60.07
2018-05-21T00:32:47.311Z,61.76
2018-05-21T00:35:14.925Z,59.11
2018-05-21T00:37:42.509Z,61.37
2018-05-21T00:40:10.070Z,61.40
2018-05-21T00:42:39.698Z,60.08
2018-05-21T00:45:07.665Z,61.36
2018-05-21T00:47:36.034Z,63.26
2018-05-21T00:50:03.726Z,60.37
2018-05-21T00:52:31.266Z,61.33
2018-05-21T00:55:10.682Z,60.82
2018-05-21T00:57:38.207Z,64.04
2018-05-21T01:00:05.754Z,60.35
2018-05-21T01:02:33.365Z,60.88
2018-05-21T01:05:00.958Z,60.23
2018-05-21T01:07:28.465Z,60.65
2018-05-21T01:09:55.973Z,58.35
2018-05-21T01:12:23.695Z,59.40
2018-05-21T01:14:51.260Z,60.57
2018-05-21T01:17:18.831Z,59.22
2018-05-21T01:19:46.395Z,59.40
2018-05-21T01:22:14.965Z,61.41
2018-05-21T01:24:42.517Z,61.22
2018-05-21T01:27:10.084Z,62.54
2018-05-21T01:29:37.578Z,63.63
2018-05-21T01:32:05.153Z,62.93
2018-05-21T01:34:32.694Z,62.34
2018-05-21T01:37:00.230Z,61.02
2018-05-21T01:39:27.740Z,61.85
2018-05-21T01:41:55.253Z,62.74
2018-05-21T01:44:22.781Z,61.66
2018-05-21T01:46:50.300Z,61.64
2018-05-21T01:49:17.813Z,63.30
2018-05-21T01:51:45.317Z,61.70
2018-05-21T01:54:12.925Z,62.92
2018-05-21T01:56:40.462Z,63.61
2018-05-21T01:59:07.994Z,65.15
2018-05-21T02:01:35.535Z,65.34
2018-05-21T02:04:03.080Z,64.81
2018-05-21T02:06:30.627Z,65.35
2018-05-21T02:08:58.148Z,63.79
2018-05-21T02:11:25.651Z,63.15
2018-05-21T02:13:53.199Z,64.57
2018-05-21T02:16:20.720Z,64.44
2018-05-21T02:18:48.228Z,66.15
2018-05-21T02:21:15.839Z,65.65
2018-05-21T02:23:43.388Z,65.97
2018-05-21T02:26:11.606Z,66.16
2018-05-21T02:28:39.154Z,66.45
2018-05-21T02:31:06.719Z,67.03
2018-05-21T02:33:34.369Z,68.33
2018-05-21T02:36:02.028Z,67.05
2018-05-21T02:38:29.560Z,66.44
2018-05-21T02:40:57.080Z,67.02
2018-05-21T02:43:24.577Z,66.79
2018-05-21T02:45:52.178Z,67.50
2018-05-21T02:48:19.706Z,67.98
2018-05-21T02:50:47.218Z,66.50
2018-05-21T02:53:14.719Z,66.81
2018-05-21T02:55:42.237Z,66.89
2018-05-21T02:58:09.794Z,66.62
2018-05-21T03:00:37.398Z,67.73
2018-05-21T03:03:05.402Z,69.11
2018-05-21T03:05:32.927Z,66.74
2018-05-21T03:08:00.477Z,66.88
2018-05-21T03:10:28.020Z,68.69
2018-05-21T03:12:55.530Z,69.28
2018-05-21T03:15:23.067Z,69.62
2018-05-21T03:17:50.608Z,68.75
2018-05-21T03:20:18.137Z,68.31
2018-05-21T03:22:45.786Z,71.00
2018-05-21T03:25:13.330Z,68.90
2018-05-21T03:27:41.560Z,68.18
2018-05-21T03:30:10.100Z,68.98
2018-05-21T03:32:37.862Z,68.11
2018-05-21T03:35:05.413Z,66.96
2018-05-21T03:37:32.926Z,68.19
2018-05-21T03:40:00.526Z,68.22
2018-05-21T03:42:28.218Z,68.73
2018-05-21T03:44:56.260Z,69.21
2018-05-21T03:47:23.779Z,68.08
2018-05-21T03:49:51.298Z,67.90
2018-05-21T03:52:18.801Z,68.14
2018-05-21T03:54:46.366Z,68.79
2018-05-21T03:57:13.955Z,68.93
2018-05-21T03:59:53.469Z,68.25
2018-05-21T04:02:33.008Z,68.83
2018-05-21T04:05:00.544Z,67.93
2018-05-21T04:07:28.259Z,69.58
2018-05-21T04:09:55.766Z,68.70
2018-05-21T04:12:23.753Z,69.06
2018-05-21T04:14:51.457Z,68.73
2018-05-21T04:17:19.316Z,70.19
2018-05-21T04:19:46.975Z,68.56
2018-05-21T04:22:14.518Z,69.17
2018-05-21T04:24:42.064Z,69.08
2018-05-21T04:27:09.592Z,67.35
2018-05-21T04:29:37.103Z,68.79
2018-05-21T04:32:04.729Z,66.98
2018-05-21T04:34:32.249Z,68.08
2018-05-21T04:37:00.720Z,68.06
2018-05-21T04:39:28.269Z,67.20
2018-05-21T04:41:55.837Z,67.54
2018-05-21T04:44:23.388Z,66.79
2018-05-21T04:46:50.918Z,65.71
2018-05-21T04:49:18.933Z,65.09
2018-05-21T04:51:46.562Z,66.50
2018-05-21T04:54:14.086Z,65.37
2018-05-21T04:56:41.963Z,66.59
2018-05-21T04:59:09.507Z,65.18
2018-05-21T05:01:37.047Z,65.01
2018-05-21T05:04:04.667Z,64.57
2018-05-21T05:06:32.267Z,64.37
2018-05-21T05:08:59.796Z,63.94
2018-05-21T05:11:27.465Z,62.45
2018-05-21T05:13:55.019Z,63.02
2018-05-21T05:16:22.742Z,61.11
2018-05-21T05:18:50.269Z,61.52
2018-05-21T05:21:17.810Z,61.75
2018-05-21T05:23:45.345Z,60.42
2018-05-21T05:26:12.868Z,59.19
2018-05-21T05:28:40.514Z,63.48
2018-05-21T05:31:08.040Z,58.71
2018-05-21T05:33:35.592Z,58.98
2018-05-21T05:36:03.148Z,56.80
2018-05-21T05:38:30.676Z,59.23
2018-05-21T05:40:58.228Z,58.31
2018-05-21T05:43:25.923Z,57.57
2018-05-21T05:45:53.474Z,57.24
2018-05-21T05:48:21.084Z,56.56
2018-05-21T05:50:48.676Z,57.35
2018-05-21T05:53:16.927Z,58.22
2018-05-21T05:55:44.476Z,56.08
2018-05-21T05:58:13.166Z,55.02
2018-05-21T06:00:40.894Z,55.37
2018-05-21T06:03:08.436Z,56.16
2018-05-21T06:05:36.139Z,56.13
2018-05-21T06:08:03.679Z,53.53
2018-05-21T06:10:31.229Z,56.32
2018-05-21T06:12:58.755Z,54.61
2018-05-21T06:15:26.306Z,55.79
2018-05-21T06:17:53.840Z,54.06
2018-05-21T06:20:21.510Z,54.22
2018-05-21T06:22:49.075Z,57.80
2018-05-21T06:25:16.673Z,54.32
2018-05-21T06:27:45.313Z,56.80
2018-05-21T06:30:14.258Z,61.33
2018-05-21T06:32:41.785Z,60.69
2018-05-21T06:35:09.422Z,52.01
2018-05-21T06:37:36.970Z,53.81
2018-05-21T06:40:04.520Z,56.20
2018-05-21T06:42:32.968Z,53.73
2018-05-21T06:45:00.502Z,50.02
2018-05-21T06:47:28.138Z,52.62
2018-05-21T06:49:55.682Z,50.77
2018-05-21T06:52:23.271Z,48.95
2018-05-21T06:54:50.841Z,51.16
2018-05-21T06:57:18.463Z,51.60
2018-05-21T06:59:46.111Z,49.87
2018-05-21T07:02:13.604Z,52.76
2018-05-21T07:04:41.351Z,52.89
2018-05-21T07:07:08.925Z,49.83
2018-05-21T07:09:36.478Z,53.22
2018-05-21T07:12:04.118Z,54.01
2018-05-21T07:14:32.844Z,53.77
2018-05-21T07:17:00.505Z,52.65
2018-05-21T07:19:28.186Z,51.24
2018-05-21T07:21:55.857Z,49.55
2018-05-21T07:24:23.432Z,48.82
2018-05-21T07:26:51.030Z,48.91
2018-05-21T07:29:18.679Z,49.95
2018-05-21T07:31:46.232Z,51.22
2018-05-21T07:34:13.792Z,52.11
2018-05-21T07:36:41.365Z,53.14
2018-05-21T07:39:08.888Z,47.01
2018-05-21T07:41:36.544Z,46.65
2018-05-21T07:44:04.115Z,48.51
2018-05-21T07:46:31.663Z,47.97
2018-05-21T07:48:59.201Z,48.33
2018-05-21T07:51:27.576Z,48.06
2018-05-21T07:53:55.192Z,48.76
2018-05-21T07:56:22.749Z,47.16
2018-05-21T07:58:50.521Z,45.96
2018-05-21T08:01:18.053Z,46.39
2018-05-21T08:03:45.587Z,48.68
2018-05-21T08:06:13.174Z,44.49
2018-05-21T08:08:40.681Z,46.08
2018-05-21T08:11:08.291Z,48.27
2018-05-21T08:13:35.957Z,50.83
2018-05-21T08:16:03.521Z,48.86
2018-05-21T08:18:31.132Z,48.59
2018-05-21T08:20:58.641Z,45.67
2018-05-21T08:23:26.164Z,44.15
2018-05-21T08:25:54.402Z,45.43
2018-05-21T08:28:21.920Z,46.49
2018-05-21T08:30:49.474Z,46.27
2018-05-21T08:33:17.010Z,53.88
2018-05-21T08:35:44.592Z,47.93
2018-05-21T08:38:12.187Z,48.50
2018-05-21T08:40:39.749Z,45.86
2018-05-21T08:43:07.394Z,53.36
2018-05-21T08:45:34.932Z,51.37
2018-05-21T08:48:04.451Z,52.27
2018-05-21T08:50:32.110Z,51.12
2018-05-21T08:52:59.709Z,49.71
2018-05-21T08:55:28.335Z,49.64
2018-05-21T08:57:55.988Z,48.91
2018-05-21T09:00:23.638Z,46.41
2018-05-21T09:02:51.264Z,42.37
2018-05-21T09:05:18.860Z,43.00
2018-05-21T09:07:46.405Z,43.81
2018-05-21T09:10:13.923Z,42.48
2018-05-21T09:12:41.490Z,44.96
2018-05-21T09:15:09.089Z,44.59
2018-05-21T09:17:36.685Z,43.31
2018-05-21T09:20:04.352Z,43.31
2018-05-21T09:22:31.986Z,44.03
2018-05-21T09:24:59.469Z,46.13
2018-05-21T09:27:27.029Z,43.34
2018-05-21T09:29:54.612Z,42.65
2018-05-21T09:32:22.199Z,41.97
2018-05-21T09:34:50.189Z,41.25
2018-05-21T09:37:17.750Z,43.41
2018-05-21T09:39:45.373Z,43.12
2018-05-21T09:42:12.945Z,42.48
2018-05-21T09:44:40.543Z,43.20
2018-05-21T09:47:08.215Z,45.96
2018-05-21T09:49:35.745Z,44.05
2018-05-21T09:52:03.343Z,45.73
2018-05-21T09:54:30.882Z,46.16
2018-05-21T09:56:58.391Z,41.97
2018-05-21T09:59:25.919Z,43.56
2018-05-21T10:01:53.523Z,44.37
2018-05-21T10:04:21.089Z,44.86
2018-05-21T10:06:48.644Z,42.64
2018-05-21T10:09:16.189Z,42.47
2018-05-21T10:11:43.718Z,44.73
2018-05-21T10:14:11.231Z,44.36
2018-05-21T10:16:38.807Z,44.49
2018-05-21T10:19:06.365Z,42.59
2018-05-21T10:21:33.923Z,42.96
2018-05-21T10:24:01.483Z,42.72
2018-05-21T10:26:29.041Z,42.94
2018-05-21T10:28:56.615Z,42.55
2018-05-21T10:31:24.188Z,42.36
2018-05-21T10:33:52.092Z,43.05
2018-05-21T10:36:19.688Z,44.29
2018-05-21T10:38:47.218Z,43.82
2018-05-21T10:41:15.108Z,40.33
2018-05-21T10:43:42.782Z,41.42
2018-05-21T10:46:10.437Z,42.05
2018-05-21T10:48:38.037Z,40.60
2018-05-21T10:51:05.612Z,42.37
2018-05-21T10:53:33.223Z,43.16
2018-05-21T10:56:00.766Z,41.85
2018-05-21T10:58:29.600Z,41.41
2018-05-21T11:00:57.150Z,42.11
2018-05-21T11:03:25.009Z,40.75
2018-05-21T11:05:52.678Z,43.06
2018-05-21T11:08:20.416Z,42.18
2018-05-21T11:10:47.985Z,43.28
2018-05-21T11:13:15.593Z,40.83
2018-05-21T11:15:43.168Z,44.41
2018-05-21T11:18:10.701Z,38.51
2018-05-21T11:20:38.292Z,40.62
2018-05-21T11:23:05.839Z,39.70
2018-05-21T11:25:33.420Z,38.88
2018-05-21T11:28:00.926Z,41.78
2018-05-21T11:30:28.450Z,41.06
2018-05-21T11:32:56.076Z,40.48
2018-05-21T11:35:23.592Z,38.66
2018-05-21T11:37:51.182Z,37.15
2018-05-21T11:40:18.726Z,38.04
2018-05-21T11:42:46.343Z,36.16
2018-05-21T11:45:13.965Z,36.00
2018-05-21T11:47:41.588Z,37.64
2018-05-21T11:50:09.142Z,34.34
2018-05-21T11:52:36.821Z,35.47
2018-05-21T11:55:04.321Z,35.27
2018-05-21T11:57:31.838Z,31.46
2018-05-21T11:59:59.403Z,32.22
2018-05-21T12:02:26.927Z,31.56
2018-05-21T12:04:54.521Z,29.97
2018-05-21T12:07:22.111Z,27.48
2018-05-21T12:09:49.664Z,26.99
2018-05-21T12:12:17.224Z,26.31
2018-05-21T12:14:44.782Z,24.36
2018-05-21T12:17:12.420Z,22.79
2018-05-21T12:19:39.979Z,21.14
2018-05-21T12:22:07.548Z,20.17
2018-05-21T12:24:35.115Z,19.68
2018-05-21T12:27:02.646Z,18.37
2018-05-21T12:29:30.255Z,18.65
2018-05-21T12:31:57.815Z,17.25
2018-05-21T12:34:25.376Z,17.73
2018-05-21T12:36:52.952Z,17.26
2018-05-21T12:39:20.521Z,16.10
2018-05-21T12:41:48.147Z,16.22
2018-05-21T12:44:15.684Z,16.80
2018-05-21T12:46:43.226Z,15.19
2018-05-21T12:49:10.767Z,15.83
2018-05-21T12:51:38.350Z,15.89
2018-05-21T12:54:05.989Z,15.41
2018-05-21T12:56:33.520Z,15.79
2018-05-21T12:59:01.059Z,16.12
2018-05-21T13:01:28.603Z,15.07
2018-05-21T13:03:56.134Z,15.01
2018-05-21T13:06:23.661Z,14.70
2018-05-21T13:08:51.221Z,15.01
2018-05-21T13:11:18.753Z,14.86
2018-05-21T13:13:46.328Z,13.03
2018-05-21T13:16:13.900Z,12.61
2018-05-21T13:18:41.429Z,11.40
2018-05-21T13:21:08.968Z,12.21
2018-05-21T13:23:36.521Z,11.24
2018-05-21T13:26:04.074Z,12.25
2018-05-21T13:28:31.705Z,11.88
2018-05-21T13:30:59.260Z,12.34
2018-05-21T13:33:26.809Z,13.20
2018-05-21T13:35:54.375Z,14.52
2018-05-21T13:38:22.000Z,13.74
2018-05-21T13:40:49.582Z,13.41
2018-05-21T13:43:17.271Z,13.95
2018-05-21T13:45:44.729Z,13.49
2018-05-21T13:48:12.291Z,12.82
2018-05-21T13:50:39.854Z,14.91
2018-05-21T13:53:07.414Z,17.05
2018-05-21T13:55:34.932Z,17.01
2018-05-21T13:58:02.523Z,14.05
2018-05-21T14:00:30.075Z,12.16
2018-05-21T14:02:57.624Z,11.74
2018-05-21T14:05:25.181Z,12.01
2018-05-21T14:07:52.976Z,10.75
2018-05-21T14:10:20.495Z,11.21
2018-05-21T14:12:48.159Z,10.81
2018-05-21T14:15:15.665Z,9.76
2018-05-21T14:17:43.250Z,10.44
2018-05-21T14:20:10.799Z,9.44
2018-05-21T14:22:38.335Z,9.60
2018-05-21T14:25:05.970Z,10.31
2018-05-21T14:27:33.534Z,10.61
2018-05-21T14:30:01.094Z,10.57
2018-05-21T14:32:28.648Z,9.55
2018-05-21T14:34:56.192Z,12.33
2018-05-21T14:37:23.783Z,14.39
2018-05-21T14:39:51.348Z,15.29
2018-05-21T14:42:18.917Z,15.72
2018-05-21T14:44:47.364Z,17.37
2018-05-21T14:47:14.892Z,15.85
2018-05-21T14:49:42.548Z,16.18
2018-05-21T14:52:10.093Z,14.43
2018-05-21T14:54:37.684Z,14.26
2018-05-21T14:57:05.341Z,14.10
2018-05-21T14:59:33.008Z,14.31
2018-05-21T15:02:00.688Z,14.67
2018-05-21T15:04:28.275Z,14.17
2018-05-21T15:06:56.032Z,13.26
2018-05-21T15:09:23.530Z,13.08
2018-05-21T15:11:51.190Z,15.36
2018-05-21T15:14:18.728Z,16.90
2018-05-21T15:16:46.261Z,16.08
2018-05-21T15:19:13.877Z,14.87
2018-05-21T15:21:41.430Z,14.48
2018-05-21T15:24:08.932Z,14.30
2018-05-21T15:26:36.528Z,14.07
2018-05-21T15:29:04.212Z,14.08
2018-05-21T15:31:31.916Z,15.44
2018-05-21T15:33:59.541Z,17.21
2018-05-21T15:36:27.175Z,17.57
2018-05-21T15:38:54.835Z,20.08
2018-05-21T15:41:22.480Z,21.77
2018-05-21T15:43:50.057Z,22.78
2018-05-21T15:46:17.849Z,26.17
2018-05-21T15:51:42.453Z,29.08
2018-05-21T15:54:10.012Z,30.62
2018-05-21T15:56:37.787Z,32.30
2018-05-21T15:59:05.331Z,32.53
2018-05-21T16:01:32.906Z,33.29
2018-05-21T16:04:00.581Z,33.02
2018-05-21T16:06:28.331Z,33.10
2018-05-21T16:08:55.992Z,33.61
2018-05-21T16:11:23.533Z,33.99
2018-05-21T16:13:51.077Z,34.49
2018-05-21T16:16:18.624Z,34.27
2018-05-21T16:18:47.117Z,34.36
2018-05-21T16:21:14.654Z,33.14
2018-05-21T16:23:42.156Z,31.41
2018-05-21T16:26:09.759Z,29.46
2018-05-21T16:28:37.281Z,29.87
2018-05-21T16:31:04.851Z,31.70
2018-05-21T16:33:32.395Z,30.66
2018-05-21T16:35:59.966Z,28.20
2018-05-21T16:38:27.557Z,29.75
2018-05-21T16:40:55.095Z,32.11
2018-05-21T16:43:22.647Z,29.91
2018-05-21T16:45:50.187Z,28.44
2018-05-21T16:48:18.149Z,29.88
2018-05-21T16:50:45.714Z,26.63
2018-05-21T16:53:13.235Z,27.40
2018-05-21T16:55:40.786Z,30.91
2018-05-21T16:58:09.446Z,29.26
2018-05-21T17:00:37.202Z,28.18
2018-05-21T17:03:04.751Z,25.77
2018-05-21T17:05:32.322Z,27.13
2018-05-21T17:07:59.865Z,24.71
2018-05-21T17:10:27.383Z,23.40
2018-05-21T17:12:54.917Z,22.37
2018-05-21T17:15:22.465Z,24.09
2018-05-21T17:17:50.037Z,21.93
2018-05-21T17:20:17.610Z,23.27
2018-05-21T17:22:45.237Z,21.75
2018-05-21T17:25:12.811Z,21.80
2018-05-21T17:27:40.414Z,21.54
2018-05-21T17:30:08.019Z,20.17
2018-05-21T17:32:35.652Z,20.61
2018-05-21T17:35:03.188Z,21.59
2018-05-21T17:37:30.753Z,20.96
2018-05-21T17:39:58.269Z,21.11
2018-05-21T17:42:26.007Z,22.67
2018-05-21T17:44:54.380Z,21.30
2018-05-21T17:47:22.384Z,22.99
2018-05-21T17:49:49.939Z,21.25
2018-05-21T17:52:17.459Z,24.35
2018-05-21T17:54:45.013Z,24.88
2018-05-21T17:57:12.772Z,26.37
2018-05-21T17:59:40.796Z,29.03
2018-05-21T18:02:08.343Z,29.17
2018-05-21T18:04:35.889Z,31.83
2018-05-21T18:07:03.414Z,32.79
2018-05-21T18:09:30.991Z,32.81
2018-05-21T18:11:58.538Z,34.28
2018-05-21T18:14:26.138Z,34.77
2018-05-21T18:16:53.676Z,38.04
2018-05-21T18:19:21.218Z,36.29
2018-05-21T18:21:48.773Z,35.90
2018-05-21T18:24:16.330Z,38.94
2018-05-21T18:26:43.874Z,38.97
2018-05-21T18:29:11.544Z,36.39
2018-05-21T18:31:39.088Z,41.06
2018-05-21T18:34:06.632Z,43.41
2018-05-21T18:36:34.232Z,43.55
2018-05-21T18:39:01.782Z,44.06
2018-05-21T18:41:29.326Z,44.34
2018-05-21T18:43:56.886Z,45.92
2018-05-21T18:46:24.416Z,46.53
2018-05-21T18:48:52.312Z,46.84
2018-05-21T18:51:20.116Z,47.82
2018-05-21T18:53:47.782Z,47.26
2018-05-21T18:56:15.295Z,48.56
2018-05-21T18:58:43.186Z,47.05
2018-05-21T19:01:10.757Z,47.77
2018-05-21T19:03:38.288Z,49.31
2018-05-21T19:06:06.132Z,50.85
2018-05-21T19:08:33.674Z,51.09
2018-05-21T19:11:01.219Z,51.10
2018-05-21T19:13:28.891Z,49.98
2018-05-21T19:15:56.452Z,51.48
2018-05-21T19:18:24.030Z,51.90
2018-05-21T19:20:51.579Z,50.04
2018-05-21T19:23:19.101Z,50.94
2018-05-21T19:25:46.668Z,47.59
2018-05-21T19:28:15.583Z,48.65
2018-05-21T19:30:43.167Z,48.81
2018-05-21T19:33:10.704Z,49.50
2018-05-21T19:35:38.292Z,50.75
2018-05-21T19:38:05.840Z,49.64
2018-05-21T19:40:33.455Z,51.56
2018-05-21T19:43:01.028Z,49.65
2018-05-21T19:45:29.292Z,49.68
2018-05-21T19:47:56.833Z,49.81
2018-05-21T19:50:24.541Z,49.84
2018-05-21T19:52:52.265Z,50.91
2018-05-21T19:55:20.159Z,51.79
2018-05-21T19:57:47.763Z,53.28
2018-05-21T20:00:15.882Z,52.51
2018-05-21T20:02:43.440Z,53.45
2018-05-21T20:05:11.065Z,52.37
2018-05-21T20:07:38.556Z,51.95
2018-05-21T20:10:07.030Z,52.20
2018-05-21T20:12:34.642Z,55.75
2018-05-21T20:15:02.213Z,52.96
2018-05-21T20:17:29.769Z,56.71
2018-05-21T20:19:57.375Z,53.42
2018-05-21T20:22:24.943Z,53.71
2018-05-21T20:24:52.500Z,54.26
2018-05-21T20:27:20.081Z,54.61
2018-05-21T20:29:47.733Z,57.95
2018-05-21T20:32:15.336Z,55.92
2018-05-21T20:34:42.865Z,58.51
2018-05-21T20:37:10.537Z,54.59
2018-05-21T20:39:38.199Z,61.20
2018-05-21T20:42:05.759Z,58.70
2018-05-21T20:44:33.321Z,57.72
2018-05-21T20:47:02.410Z,56.73
2018-05-21T20:49:31.953Z,55.93
2018-05-21T20:52:00.741Z,56.41
2018-05-21T20:54:28.461Z,56.73
2018-05-21T20:56:56.156Z,56.33
2018-05-21T20:59:23.770Z,59.42
2018-05-21T21:01:51.329Z,55.15
2018-05-21T21:04:18.920Z,55.77
2018-05-21T21:06:46.429Z,57.68
2018-05-21T21:09:14.521Z,56.63
2018-05-21T21:11:42.922Z,57.39
2018-05-21T21:14:10.670Z,61.94
2018-05-21T21:16:38.312Z,57.59
2018-05-21T21:19:06.033Z,55.99
2018-05-21T21:21:33.675Z,57.31
2018-05-21T21:24:01.258Z,52.23
2018-05-21T21:26:29.795Z,56.10
2018-05-21T21:28:57.469Z,58.46
2018-05-21T21:31:25.228Z,57.59
2018-05-21T21:33:52.816Z,58.09
2018-05-21T21:36:20.364Z,56.00
2018-05-21T21:38:48.563Z,57.37
2018-05-21T21:41:16.351Z,55.52
2018-05-21T21:43:45.135Z,53.64
2018-05-21T21:46:13.464Z,56.05
2018-05-21T21:48:41.056Z,56.90
2018-05-21T21:51:08.723Z,57.44
2018-05-21T21:53:36.425Z,54.58
2018-05-21T21:56:04.621Z,56.33
2018-05-21T21:58:32.275Z,56.34
2018-05-21T22:01:00.449Z,55.60
2018-05-21T22:03:28.117Z,57.41
2018-05-21T22:05:55.779Z,54.79
2018-05-21T22:08:23.350Z,54.35
2018-05-21T22:10:51.029Z,56.37
2018-05-21T22:13:18.749Z,56.68
2018-05-21T22:15:47.457Z,56.63
2018-05-21T22:18:15.064Z,56.37
2018-05-21T22:20:42.865Z,58.92
2018-05-21T22:23:10.524Z,59.05
2018-05-21T22:25:38.182Z,57.61
2018-05-21T22:28:06.171Z,58.41
2018-05-21T22:30:33.882Z,57.39
2018-05-21T22:33:01.599Z,57.56
2018-05-21T22:35:29.373Z,57.93
2018-05-21T22:37:57.309Z,57.40
2018-05-21T22:40:24.849Z,57.57
2018-05-21T22:42:52.729Z,56.70
2018-05-21T22:45:20.396Z,57.29
2018-05-21T22:47:47.956Z,57.26
2018-05-21T22:50:15.590Z,56.90
2018-05-21T22:52:43.484Z,57.92
2018-05-21T22:55:11.029Z,58.18
2018-05-21T22:57:38.649Z,57.99
2018-05-21T23:00:06.162Z,56.72
2018-05-21T23:02:33.680Z,58.00
2018-05-21T23:05:01.286Z,57.57
2018-05-21T23:07:28.835Z,56.85
2018-05-21T23:09:56.394Z,56.87
2018-05-21T23:12:23.904Z,57.17
2018-05-21T23:14:51.562Z,58.40
2018-05-21T23:17:19.094Z,59.41
2018-05-21T23:19:46.656Z,59.17
2018-05-21T23:22:14.215Z,60.07
2018-05-21T23:24:41.828Z,59.60
2018-05-21T23:27:09.380Z,59.90
2018-05-21T23:29:36.910Z,59.46
2018-05-21T23:32:04.594Z,59.19
2018-05-21T23:34:32.208Z,59.42
2018-05-21T23:36:59.749Z,61.06
2018-05-21T23:39:27.328Z,63.07
2018-05-21T23:41:54.926Z,62.93
2018-05-21T23:44:22.547Z,62.23
2018-05-21T23:46:50.123Z,61.83
2018-05-21T23:49:17.655Z,60.20
2018-05-21T23:51:45.166Z,59.57
2018-05-21T23:54:12.818Z,60.83
2018-05-21T23:56:40.379Z,61.23
2018-05-21T23:59:07.947Z,63.71
